sensor_id;sensor_type;location;lat;lon;timestamp;temperature;humidity
24800;DHT22;12897;50.812;4.430;2022-09-09T00:02:21;15.90;99.90
24800;DHT22;12897;50.812;4.430;2022-09-09T00:05:14;15.90;99.90
24800;DHT22;12897;50.812;4.430;2022-09-09T00:07:50;16.10;99.90
24800;DHT22;12897;50.812;4.430;2022-09-09T00:10:31;16.10;99.90
24800;DHT22;12897;50.812;4.430;2022-09-09T00:15:43;16.00;99.90
24800;DHT22;12897;50.812;4.430;2022-09-09T00:18:45;16.00;99.90
24800;DHT22;12897;50.812;4.430;2022-09-09T00:21:08;16.10;99.90
24800;DHT22;12897;50.812;4.430;2022-09-09T00:23:40;15.90;99.90
24800;DHT22;12897;50.812;4.430;2022-09-09T00:26:25;16.00;99.90
24800;DHT22;12897;50.812;4.430;2022-09-09T00:31:36;16.00;99.90
24800;DHT22;12897;50.812;4.430;2022-09-09T00:34:13;15.90;99.90
24800;DHT22;12897;50.812;4.430;2022-09-09T00:36:41;15.70;99.90
24800;DHT22;12897;50.812;4.430;2022-09-09T00:39:19;15.80;99.90
24800;DHT22;12897;50.812;4.430;2022-09-09T00:42:02;15.80;99.90
24800;DHT22;12897;50.812;4.430;2022-09-09T00:44:35;15.90;99.90
24800;DHT22;12897;50.812;4.430;2022-09-09T00:50:00;16.00;99.90
24800;DHT22;12897;50.812;4.430;2022-09-09T00:52:36;16.10;99.90
24800;DHT22;12897;50.812;4.430;2022-09-09T00:55:14;16.20;99.90
24800;DHT22;12897;50.812;4.430;2022-09-09T00:57:42;16.30;99.90
24800;DHT22;12897;50.812;4.430;2022-09-09T01:00:31;16.30;99.90
24800;DHT22;12897;50.812;4.430;2022-09-09T01:06:01;16.20;99.90
24800;DHT22;12897;50.812;4.430;2022-09-09T01:12:14;16.50;99.90
24800;DHT22;12897;50.812;4.430;2022-09-09T01:14:16;16.50;99.90
24800;DHT22;12897;50.812;4.430;2022-09-09T01:16:40;16.40;99.90
24800;DHT22;12897;50.812;4.430;2022-09-09T01:19:09;16.30;99.90
24800;DHT22;12897;50.812;4.430;2022-09-09T01:22:32;16.30;99.90
24800;DHT22;12897;50.812;4.430;2022-09-09T01:24:38;16.30;99.90
24800;DHT22;12897;50.812;4.430;2022-09-09T01:27:05;16.30;99.90
24800;DHT22;12897;50.812;4.430;2022-09-09T01:29:33;16.40;99.90
24800;DHT22;12897;50.812;4.430;2022-09-09T01:32:39;16.40;99.90
24800;DHT22;12897;50.812;4.430;2022-09-09T01:35:35;16.30;99.90
24800;DHT22;12897;50.812;4.430;2022-09-09T01:38:00;16.10;99.90
24800;DHT22;12897;50.812;4.430;2022-09-09T01:40:28;16.10;99.90
24800;DHT22;12897;50.812;4.430;2022-09-09T01:42:55;16.10;99.90
24800;DHT22;12897;50.812;4.430;2022-09-09T01:45:24;16.20;99.90
24800;DHT22;12897;50.812;4.430;2022-09-09T01:47:52;16.10;99.90
24800;DHT22;12897;50.812;4.430;2022-09-09T01:50:21;16.10;99.90
24800;DHT22;12897;50.812;4.430;2022-09-09T01:52:52;16.20;99.90
24800;DHT22;12897;50.812;4.430;2022-09-09T01:55:23;16.20;99.90
24800;DHT22;12897;50.812;4.430;2022-09-09T02:00:43;16.20;99.90
24800;DHT22;12897;50.812;4.430;2022-09-09T02:03:25;16.10;99.90
24800;DHT22;12897;50.812;4.430;2022-09-09T02:08:52;15.90;99.90
24800;DHT22;12897;50.812;4.430;2022-09-09T02:11:21;16.20;99.90
24800;DHT22;12897;50.812;4.430;2022-09-09T02:13:51;16.10;99.90
24800;DHT22;12897;50.812;4.430;2022-09-09T02:16:37;16.20;99.90
24800;DHT22;12897;50.812;4.430;2022-09-09T02:19:08;16.10;99.90
24800;DHT22;12897;50.812;4.430;2022-09-09T02:21:41;16.00;99.90
24800;DHT22;12897;50.812;4.430;2022-09-09T02:24:11;15.90;99.90
24800;DHT22;12897;50.812;4.430;2022-09-09T02:26:42;16.00;99.90
24800;DHT22;12897;50.812;4.430;2022-09-09T02:29:16;16.00;99.90
24800;DHT22;12897;50.812;4.430;2022-09-09T02:31:45;15.90;99.90
24800;DHT22;12897;50.812;4.430;2022-09-09T02:34:15;15.80;99.90
24800;DHT22;12897;50.812;4.430;2022-09-09T02:36:44;15.80;99.90
24800;DHT22;12897;50.812;4.430;2022-09-09T02:39:13;15.80;99.90
24800;DHT22;12897;50.812;4.430;2022-09-09T02:41:42;15.90;99.90
24800;DHT22;12897;50.812;4.430;2022-09-09T02:44:11;15.90;99.90
24800;DHT22;12897;50.812;4.430;2022-09-09T02:47:02;15.90;99.90
24800;DHT22;12897;50.812;4.430;2022-09-09T02:52:08;15.90;99.90
24800;DHT22;12897;50.812;4.430;2022-09-09T02:54:40;15.80;99.90
24800;DHT22;12897;50.812;4.430;2022-09-09T02:57:23;15.90;99.90
24800;DHT22;12897;50.812;4.430;2022-09-09T02:59:50;15.90;99.90
24800;DHT22;12897;50.812;4.430;2022-09-09T03:02:19;15.80;99.90
24800;DHT22;12897;50.812;4.430;2022-09-09T03:04:48;15.70;99.90
24800;DHT22;12897;50.812;4.430;2022-09-09T03:07:21;15.60;99.90
24800;DHT22;12897;50.812;4.430;2022-09-09T03:09:49;15.60;99.90
24800;DHT22;12897;50.812;4.430;2022-09-09T03:12:16;15.60;99.90
24800;DHT22;12897;50.812;4.430;2022-09-09T03:14:44;15.70;99.90
24800;DHT22;12897;50.812;4.430;2022-09-09T03:17:12;15.60;99.90
24800;DHT22;12897;50.812;4.430;2022-09-09T03:19:40;15.60;99.90
24800;DHT22;12897;50.812;4.430;2022-09-09T03:22:10;15.80;99.90
24800;DHT22;12897;50.812;4.430;2022-09-09T03:24:39;15.80;99.90
24800;DHT22;12897;50.812;4.430;2022-09-09T03:27:07;15.80;99.90
24800;DHT22;12897;50.812;4.430;2022-09-09T03:29:35;16.00;99.90
24800;DHT22;12897;50.812;4.430;2022-09-09T03:32:03;16.10;99.90
24800;DHT22;12897;50.812;4.430;2022-09-09T03:34:33;16.10;99.90
24800;DHT22;12897;50.812;4.430;2022-09-09T03:37:02;16.00;99.90
24800;DHT22;12897;50.812;4.430;2022-09-09T03:39:30;16.10;99.90
24800;DHT22;12897;50.812;4.430;2022-09-09T03:41:58;16.10;99.90
24800;DHT22;12897;50.812;4.430;2022-09-09T03:44:25;15.90;99.90
24800;DHT22;12897;50.812;4.430;2022-09-09T03:46:54;15.80;99.90
24800;DHT22;12897;50.812;4.430;2022-09-09T03:49:22;15.80;99.90
24800;DHT22;12897;50.812;4.430;2022-09-09T03:51:50;15.80;99.90
24800;DHT22;12897;50.812;4.430;2022-09-09T03:54:18;15.80;99.90
24800;DHT22;12897;50.812;4.430;2022-09-09T03:56:47;15.90;99.90
24800;DHT22;12897;50.812;4.430;2022-09-09T03:59:14;15.80;99.90
24800;DHT22;12897;50.812;4.430;2022-09-09T04:01:42;15.90;99.90
24800;DHT22;12897;50.812;4.430;2022-09-09T04:04:11;16.00;99.90
24800;DHT22;12897;50.812;4.430;2022-09-09T04:06:39;16.00;99.90
24800;DHT22;12897;50.812;4.430;2022-09-09T04:09:07;15.90;99.90
24800;DHT22;12897;50.812;4.430;2022-09-09T04:11:34;16.00;99.90
24800;DHT22;12897;50.812;4.430;2022-09-09T04:14:03;16.10;99.90
24800;DHT22;12897;50.812;4.430;2022-09-09T04:16:33;16.10;99.90
24800;DHT22;12897;50.812;4.430;2022-09-09T04:19:04;16.00;99.90
24800;DHT22;12897;50.812;4.430;2022-09-09T04:21:34;16.00;99.90
24800;DHT22;12897;50.812;4.430;2022-09-09T04:24:01;16.10;99.90
24800;DHT22;12897;50.812;4.430;2022-09-09T04:26:29;16.10;99.90
24800;DHT22;12897;50.812;4.430;2022-09-09T04:28:57;16.10;99.90
24800;DHT22;12897;50.812;4.430;2022-09-09T04:31:25;15.90;99.90
24800;DHT22;12897;50.812;4.430;2022-09-09T04:33:53;15.80;99.90
24800;DHT22;12897;50.812;4.430;2022-09-09T04:36:21;15.80;99.90
24800;DHT22;12897;50.812;4.430;2022-09-09T04:38:51;15.80;99.90
24800;DHT22;12897;50.812;4.430;2022-09-09T04:41:19;15.90;99.90
24800;DHT22;12897;50.812;4.430;2022-09-09T04:43:47;16.00;99.90
24800;DHT22;12897;50.812;4.430;2022-09-09T04:46:15;16.10;99.90
24800;DHT22;12897;50.812;4.430;2022-09-09T04:48:45;16.10;99.90
24800;DHT22;12897;50.812;4.430;2022-09-09T04:51:15;16.00;99.90
24800;DHT22;12897;50.812;4.430;2022-09-09T04:53:42;15.90;99.90
24800;DHT22;12897;50.812;4.430;2022-09-09T04:56:15;15.80;99.90
24800;DHT22;12897;50.812;4.430;2022-09-09T04:58:43;15.90;99.90
24800;DHT22;12897;50.812;4.430;2022-09-09T05:01:17;15.80;99.90
24800;DHT22;12897;50.812;4.430;2022-09-09T05:03:44;15.80;99.90
24800;DHT22;12897;50.812;4.430;2022-09-09T05:06:17;15.90;99.90
24800;DHT22;12897;50.812;4.430;2022-09-09T05:08:45;16.00;99.90
24800;DHT22;12897;50.812;4.430;2022-09-09T05:11:25;16.00;99.90
24800;DHT22;12897;50.812;4.430;2022-09-09T05:13:54;15.90;99.90
24800;DHT22;12897;50.812;4.430;2022-09-09T05:16:24;15.90;99.90
24800;DHT22;12897;50.812;4.430;2022-09-09T05:18:52;15.90;99.90
24800;DHT22;12897;50.812;4.430;2022-09-09T05:21:21;15.90;99.90
24800;DHT22;12897;50.812;4.430;2022-09-09T05:23:50;15.90;99.90
24800;DHT22;12897;50.812;4.430;2022-09-09T05:26:20;16.10;99.90
24800;DHT22;12897;50.812;4.430;2022-09-09T05:28:50;16.30;99.90
24800;DHT22;12897;50.812;4.430;2022-09-09T05:31:18;16.30;99.90
24800;DHT22;12897;50.812;4.430;2022-09-09T05:33:47;16.30;99.90
24800;DHT22;12897;50.812;4.430;2022-09-09T05:36:18;16.30;99.90
24800;DHT22;12897;50.812;4.430;2022-09-09T05:38:47;16.50;99.90
24800;DHT22;12897;50.812;4.430;2022-09-09T05:41:16;16.40;99.90
24800;DHT22;12897;50.812;4.430;2022-09-09T05:43:46;16.40;99.90
24800;DHT22;12897;50.812;4.430;2022-09-09T05:46:17;16.40;99.90
24800;DHT22;12897;50.812;4.430;2022-09-09T05:48:48;16.40;99.90
24800;DHT22;12897;50.812;4.430;2022-09-09T05:51:21;16.40;99.90
24800;DHT22;12897;50.812;4.430;2022-09-09T05:53:49;16.50;99.90
24800;DHT22;12897;50.812;4.430;2022-09-09T05:56:22;16.60;99.90
24800;DHT22;12897;50.812;4.430;2022-09-09T05:59:03;16.50;99.90
24800;DHT22;12897;50.812;4.430;2022-09-09T06:01:33;16.30;99.90
24800;DHT22;12897;50.812;4.430;2022-09-09T06:04:04;16.30;99.90
24800;DHT22;12897;50.812;4.430;2022-09-09T06:06:34;16.50;99.90
24800;DHT22;12897;50.812;4.430;2022-09-09T06:09:08;16.60;99.90
24800;DHT22;12897;50.812;4.430;2022-09-09T06:11:38;16.90;99.90
24800;DHT22;12897;50.812;4.430;2022-09-09T06:14:08;17.00;99.90
24800;DHT22;12897;50.812;4.430;2022-09-09T06:16:36;17.10;99.90
24800;DHT22;12897;50.812;4.430;2022-09-09T06:19:04;16.90;99.90
24800;DHT22;12897;50.812;4.430;2022-09-09T06:21:37;16.80;99.90
24800;DHT22;12897;50.812;4.430;2022-09-09T06:24:05;16.90;99.90
24800;DHT22;12897;50.812;4.430;2022-09-09T06:26:36;16.90;99.90
24800;DHT22;12897;50.812;4.430;2022-09-09T06:29:07;16.90;99.90
24800;DHT22;12897;50.812;4.430;2022-09-09T06:31:36;17.00;99.90
24800;DHT22;12897;50.812;4.430;2022-09-09T06:34:05;17.10;99.90
24800;DHT22;12897;50.812;4.430;2022-09-09T06:36:36;17.20;99.90
24800;DHT22;12897;50.812;4.430;2022-09-09T06:39:05;17.30;99.90
24800;DHT22;12897;50.812;4.430;2022-09-09T06:41:34;17.40;99.90
24800;DHT22;12897;50.812;4.430;2022-09-09T06:44:02;17.30;99.90
24800;DHT22;12897;50.812;4.430;2022-09-09T06:46:30;17.40;99.90
24800;DHT22;12897;50.812;4.430;2022-09-09T06:48:59;17.30;99.90
24800;DHT22;12897;50.812;4.430;2022-09-09T06:51:30;17.30;99.90
24800;DHT22;12897;50.812;4.430;2022-09-09T06:53:58;17.30;99.90
24800;DHT22;12897;50.812;4.430;2022-09-09T06:56:29;17.20;99.90
24800;DHT22;12897;50.812;4.430;2022-09-09T06:58:59;17.20;99.90
24800;DHT22;12897;50.812;4.430;2022-09-09T07:01:31;17.20;99.90
24800;DHT22;12897;50.812;4.430;2022-09-09T07:04:00;17.30;99.90
24800;DHT22;12897;50.812;4.430;2022-09-09T07:06:35;17.30;99.90
24800;DHT22;12897;50.812;4.430;2022-09-09T07:09:00;17.30;99.90
24800;DHT22;12897;50.812;4.430;2022-09-09T07:11:32;17.40;99.90
24800;DHT22;12897;50.812;4.430;2022-09-09T07:14:00;17.40;99.90
24800;DHT22;12897;50.812;4.430;2022-09-09T07:16:28;17.20;99.90
24800;DHT22;12897;50.812;4.430;2022-09-09T07:18:57;17.20;99.90
24800;DHT22;12897;50.812;4.430;2022-09-09T07:21:32;17.20;99.90
24800;DHT22;12897;50.812;4.430;2022-09-09T07:24:00;17.40;99.90
24800;DHT22;12897;50.812;4.430;2022-09-09T07:26:30;17.40;99.90
24800;DHT22;12897;50.812;4.430;2022-09-09T07:28:58;17.30;99.90
24800;DHT22;12897;50.812;4.430;2022-09-09T07:31:29;17.40;99.90
24800;DHT22;12897;50.812;4.430;2022-09-09T07:34:00;17.30;99.90
24800;DHT22;12897;50.812;4.430;2022-09-09T07:36:32;17.40;99.90
24800;DHT22;12897;50.812;4.430;2022-09-09T07:39:04;17.50;99.90
24800;DHT22;12897;50.812;4.430;2022-09-09T07:41:34;17.50;99.90
24800;DHT22;12897;50.812;4.430;2022-09-09T07:44:09;17.40;99.90
24800;DHT22;12897;50.812;4.430;2022-09-09T07:46:38;17.50;99.90
24800;DHT22;12897;50.812;4.430;2022-09-09T07:49:07;17.20;99.90
24800;DHT22;12897;50.812;4.430;2022-09-09T07:51:37;17.10;99.90
24800;DHT22;12897;50.812;4.430;2022-09-09T07:54:09;17.20;99.90
24800;DHT22;12897;50.812;4.430;2022-09-09T07:56:38;17.20;99.90
24800;DHT22;12897;50.812;4.430;2022-09-09T07:59:08;17.20;99.90
24800;DHT22;12897;50.812;4.430;2022-09-09T08:01:39;17.20;99.90
24800;DHT22;12897;50.812;4.430;2022-09-09T08:04:09;17.30;99.90
24800;DHT22;12897;50.812;4.430;2022-09-09T08:06:40;17.30;99.90
24800;DHT22;12897;50.812;4.430;2022-09-09T08:09:12;17.40;99.90
24800;DHT22;12897;50.812;4.430;2022-09-09T08:11:39;17.40;99.90
24800;DHT22;12897;50.812;4.430;2022-09-09T08:14:09;17.30;99.90
24800;DHT22;12897;50.812;4.430;2022-09-09T08:16:40;17.60;99.90
24800;DHT22;12897;50.812;4.430;2022-09-09T08:19:08;17.90;99.90
24800;DHT22;12897;50.812;4.430;2022-09-09T08:21:38;18.10;99.90
24800;DHT22;12897;50.812;4.430;2022-09-09T08:24:07;18.20;99.90
24800;DHT22;12897;50.812;4.430;2022-09-09T08:26:37;18.20;99.90
24800;DHT22;12897;50.812;4.430;2022-09-09T08:29:07;18.40;99.90
24800;DHT22;12897;50.812;4.430;2022-09-09T08:31:37;18.60;99.90
24800;DHT22;12897;50.812;4.430;2022-09-09T08:34:05;18.40;99.90
24800;DHT22;12897;50.812;4.430;2022-09-09T08:36:36;18.50;99.90
24800;DHT22;12897;50.812;4.430;2022-09-09T08:39:05;18.40;99.90
24800;DHT22;12897;50.812;4.430;2022-09-09T08:44:23;17.90;99.90
24800;DHT22;12897;50.812;4.430;2022-09-09T08:50:26;18.10;99.90
24800;DHT22;12897;50.812;4.430;2022-09-09T08:55:50;18.00;99.90
24800;DHT22;12897;50.812;4.430;2022-09-09T08:58:21;18.00;99.90
24800;DHT22;12897;50.812;4.430;2022-09-09T09:01:05;17.90;99.90
24800;DHT22;12897;50.812;4.430;2022-09-09T09:06:26;18.20;99.90
24800;DHT22;12897;50.812;4.430;2022-09-09T09:09:16;18.40;99.90
24800;DHT22;12897;50.812;4.430;2022-09-09T09:11:54;18.40;99.90
24800;DHT22;12897;50.812;4.430;2022-09-09T09:14:28;18.30;99.90
24800;DHT22;12897;50.812;4.430;2022-09-09T09:17:04;18.00;99.90
24800;DHT22;12897;50.812;4.430;2022-09-09T09:19:34;17.80;99.90
24800;DHT22;12897;50.812;4.430;2022-09-09T09:22:18;17.60;99.90
24800;DHT22;12897;50.812;4.430;2022-09-09T09:25:08;17.40;99.90
24800;DHT22;12897;50.812;4.430;2022-09-09T09:27:46;17.30;99.90
24800;DHT22;12897;50.812;4.430;2022-09-09T09:30:14;17.30;99.90
24800;DHT22;12897;50.812;4.430;2022-09-09T09:32:50;17.50;99.90
24800;DHT22;12897;50.812;4.430;2022-09-09T09:35:13;17.60;99.90
24800;DHT22;12897;50.812;4.430;2022-09-09T09:37:42;17.50;99.90
24800;DHT22;12897;50.812;4.430;2022-09-09T09:40:21;17.70;99.90
24800;DHT22;12897;50.812;4.430;2022-09-09T09:42:55;17.90;99.90
24800;DHT22;12897;50.812;4.430;2022-09-09T09:45:35;18.00;99.90
24800;DHT22;12897;50.812;4.430;2022-09-09T09:48:05;18.00;99.90
24800;DHT22;12897;50.812;4.430;2022-09-09T09:50:39;17.90;99.90
24800;DHT22;12897;50.812;4.430;2022-09-09T09:53:05;17.90;99.90
24800;DHT22;12897;50.812;4.430;2022-09-09T09:55:35;17.90;99.90
24800;DHT22;12897;50.812;4.430;2022-09-09T09:58:05;17.90;99.90
24800;DHT22;12897;50.812;4.430;2022-09-09T10:00:34;17.90;99.90
24800;DHT22;12897;50.812;4.430;2022-09-09T10:03:13;17.90;99.90
24800;DHT22;12897;50.812;4.430;2022-09-09T10:05:37;17.80;99.90
24800;DHT22;12897;50.812;4.430;2022-09-09T10:10:42;17.80;99.90
24800;DHT22;12897;50.812;4.430;2022-09-09T10:18:52;17.60;99.90
24800;DHT22;12897;50.812;4.430;2022-09-09T10:24:10;17.80;99.90
24800;DHT22;12897;50.812;4.430;2022-09-09T10:26:48;17.80;99.90
24800;DHT22;12897;50.812;4.430;2022-09-09T10:40:46;18.20;99.90
24800;DHT22;12897;50.812;4.430;2022-09-09T10:43:39;18.30;99.90
24800;DHT22;12897;50.812;4.430;2022-09-09T10:49:18;18.30;99.90
24800;DHT22;12897;50.812;4.430;2022-09-09T10:57:46;19.00;99.90
24800;DHT22;12897;50.812;4.430;2022-09-09T11:00:35;19.20;99.90
24800;DHT22;12897;50.812;4.430;2022-09-09T11:02:56;19.30;99.90
24800;DHT22;12897;50.812;4.430;2022-09-09T11:08:20;19.40;99.90
24800;DHT22;12897;50.812;4.430;2022-09-09T11:11:03;19.30;99.90
24800;DHT22;12897;50.812;4.430;2022-09-09T11:13:53;19.20;99.90
24800;DHT22;12897;50.812;4.430;2022-09-09T11:19:23;19.30;99.90
24800;DHT22;12897;50.812;4.430;2022-09-09T11:21:53;19.30;99.90
24800;DHT22;12897;50.812;4.430;2022-09-09T11:24:31;19.40;99.90
24800;DHT22;12897;50.812;4.430;2022-09-09T11:27:01;19.30;99.90
24800;DHT22;12897;50.812;4.430;2022-09-09T11:40:17;19.70;99.90
24800;DHT22;12897;50.812;4.430;2022-09-09T11:42:51;19.70;99.90
24800;DHT22;12897;50.812;4.430;2022-09-09T11:45:28;19.40;99.90
24800;DHT22;12897;50.812;4.430;2022-09-09T11:47:59;19.40;99.90
24800;DHT22;12897;50.812;4.430;2022-09-09T11:50:30;19.50;99.90
24800;DHT22;12897;50.812;4.430;2022-09-09T11:55:42;19.80;99.90
24800;DHT22;12897;50.812;4.430;2022-09-09T12:00:43;19.90;99.90
24800;DHT22;12897;50.812;4.430;2022-09-09T12:06:27;19.90;99.90
24800;DHT22;12897;50.812;4.430;2022-09-09T12:08:57;19.90;99.90
24800;DHT22;12897;50.812;4.430;2022-09-09T12:11:28;20.10;99.90
24800;DHT22;12897;50.812;4.430;2022-09-09T12:13:59;20.30;99.90
24800;DHT22;12897;50.812;4.430;2022-09-09T12:16:31;20.20;99.90
24800;DHT22;12897;50.812;4.430;2022-09-09T12:21:42;19.90;99.90
24800;DHT22;12897;50.812;4.430;2022-09-09T12:24:16;19.70;99.90
24800;DHT22;12897;50.812;4.430;2022-09-09T12:26:47;19.80;99.90
24800;DHT22;12897;50.812;4.430;2022-09-09T12:34:29;19.50;99.90
24800;DHT22;12897;50.812;4.430;2022-09-09T12:37:03;19.60;99.90
24800;DHT22;12897;50.812;4.430;2022-09-09T12:39:37;19.70;99.90
24800;DHT22;12897;50.812;4.430;2022-09-09T12:42:00;20.00;99.90
24800;DHT22;12897;50.812;4.430;2022-09-09T12:44:33;20.10;99.90
24800;DHT22;12897;50.812;4.430;2022-09-09T12:47:02;20.00;99.90
24800;DHT22;12897;50.812;4.430;2022-09-09T12:49:35;20.20;99.90
24800;DHT22;12897;50.812;4.430;2022-09-09T12:52:13;20.20;99.90
24800;DHT22;12897;50.812;4.430;2022-09-09T12:54:42;20.30;99.90
24800;DHT22;12897;50.812;4.430;2022-09-09T12:57:11;20.50;99.90
24800;DHT22;12897;50.812;4.430;2022-09-09T12:59:42;20.40;99.90
24800;DHT22;12897;50.812;4.430;2022-09-09T13:02:22;20.50;99.90
24800;DHT22;12897;50.812;4.430;2022-09-09T13:04:50;20.60;99.90
24800;DHT22;12897;50.812;4.430;2022-09-09T13:07:20;20.40;99.90
24800;DHT22;12897;50.812;4.430;2022-09-09T13:09:48;20.30;99.90
24800;DHT22;12897;50.812;4.430;2022-09-09T13:12:20;20.30;99.90
24800;DHT22;12897;50.812;4.430;2022-09-09T13:14:51;20.20;99.90
24800;DHT22;12897;50.812;4.430;2022-09-09T13:17:25;20.20;99.90
24800;DHT22;12897;50.812;4.430;2022-09-09T13:19:57;20.30;99.90
24800;DHT22;12897;50.812;4.430;2022-09-09T13:22:29;20.50;99.90
24800;DHT22;12897;50.812;4.430;2022-09-09T13:25:18;20.50;99.90
24800;DHT22;12897;50.812;4.430;2022-09-09T13:28:00;20.50;99.90
24800;DHT22;12897;50.812;4.430;2022-09-09T13:30:32;20.50;99.90
24800;DHT22;12897;50.812;4.430;2022-09-09T13:35:50;20.60;99.90
24800;DHT22;12897;50.812;4.430;2022-09-09T13:38:19;20.80;99.90
24800;DHT22;12897;50.812;4.430;2022-09-09T13:43:27;20.80;99.90
24800;DHT22;12897;50.812;4.430;2022-09-09T13:46:04;20.80;99.90
24800;DHT22;12897;50.812;4.430;2022-09-09T13:48:37;20.90;99.90
24800;DHT22;12897;50.812;4.430;2022-09-09T13:51:05;20.80;99.90
24800;DHT22;12897;50.812;4.430;2022-09-09T13:53:35;20.90;99.90
24800;DHT22;12897;50.812;4.430;2022-09-09T13:56:03;21.10;99.90
24800;DHT22;12897;50.812;4.430;2022-09-09T13:58:32;21.10;99.90
24800;DHT22;12897;50.812;4.430;2022-09-09T14:01:03;20.90;99.90
24800;DHT22;12897;50.812;4.430;2022-09-09T14:03:30;21.00;99.90
24800;DHT22;12897;50.812;4.430;2022-09-09T14:05:58;21.00;99.90
24800;DHT22;12897;50.812;4.430;2022-09-09T14:08:27;20.90;99.90
24800;DHT22;12897;50.812;4.430;2022-09-09T14:10:57;20.90;99.90
24800;DHT22;12897;50.812;4.430;2022-09-09T14:13:25;21.10;99.90
24800;DHT22;12897;50.812;4.430;2022-09-09T14:15:54;21.00;99.90
24800;DHT22;12897;50.812;4.430;2022-09-09T14:18:22;21.20;99.90
24800;DHT22;12897;50.812;4.430;2022-09-09T14:20:52;21.20;99.90
24800;DHT22;12897;50.812;4.430;2022-09-09T14:23:23;21.20;99.90
24800;DHT22;12897;50.812;4.430;2022-09-09T14:25:52;20.80;99.90
24800;DHT22;12897;50.812;4.430;2022-09-09T14:28:20;20.60;99.90
24800;DHT22;12897;50.812;4.430;2022-09-09T14:30:47;20.50;99.90
24800;DHT22;12897;50.812;4.430;2022-09-09T14:33:16;20.50;99.90
24800;DHT22;12897;50.812;4.430;2022-09-09T14:35:57;20.70;99.90
24800;DHT22;12897;50.812;4.430;2022-09-09T14:38:33;20.60;99.90
24800;DHT22;12897;50.812;4.430;2022-09-09T14:41:13;20.70;99.90
24800;DHT22;12897;50.812;4.430;2022-09-09T14:43:44;21.10;99.90
24800;DHT22;12897;50.812;4.430;2022-09-09T14:46:14;21.40;99.90
24800;DHT22;12897;50.812;4.430;2022-09-09T14:48:41;21.50;99.90
24800;DHT22;12897;50.812;4.430;2022-09-09T14:51:13;21.50;99.90
24800;DHT22;12897;50.812;4.430;2022-09-09T14:53:43;21.20;99.90
24800;DHT22;12897;50.812;4.430;2022-09-09T14:56:16;21.30;99.90
24800;DHT22;12897;50.812;4.430;2022-09-09T14:58:45;21.30;99.90
24800;DHT22;12897;50.812;4.430;2022-09-09T15:01:19;21.20;99.90
24800;DHT22;12897;50.812;4.430;2022-09-09T15:03:52;21.10;99.90
24800;DHT22;12897;50.812;4.430;2022-09-09T15:06:23;21.00;99.90
24800;DHT22;12897;50.812;4.430;2022-09-09T15:08:53;21.20;99.90
24800;DHT22;12897;50.812;4.430;2022-09-09T15:11:22;21.20;99.90
24800;DHT22;12897;50.812;4.430;2022-09-09T15:13:51;21.30;99.90
24800;DHT22;12897;50.812;4.430;2022-09-09T15:16:27;21.00;99.90
24800;DHT22;12897;50.812;4.430;2022-09-09T15:18:58;20.90;99.90
24800;DHT22;12897;50.812;4.430;2022-09-09T15:21:32;21.20;99.90
24800;DHT22;12897;50.812;4.430;2022-09-09T15:24:00;21.40;99.90
24800;DHT22;12897;50.812;4.430;2022-09-09T15:26:28;21.40;99.90
24800;DHT22;12897;50.812;4.430;2022-09-09T15:28:57;21.20;99.90
24800;DHT22;12897;50.812;4.430;2022-09-09T15:31:28;21.20;99.90
24800;DHT22;12897;50.812;4.430;2022-09-09T15:33:59;21.10;99.90
24800;DHT22;12897;50.812;4.430;2022-09-09T15:36:35;21.00;99.90
24800;DHT22;12897;50.812;4.430;2022-09-09T15:39:06;21.00;99.90
24800;DHT22;12897;50.812;4.430;2022-09-09T15:41:39;21.00;99.90
24800;DHT22;12897;50.812;4.430;2022-09-09T15:44:11;20.80;99.90
24800;DHT22;12897;50.812;4.430;2022-09-09T15:46:58;20.80;99.90
24800;DHT22;12897;50.812;4.430;2022-09-09T15:49:20;20.60;99.90
24800;DHT22;12897;50.812;4.430;2022-09-09T15:51:56;20.50;99.90
24800;DHT22;12897;50.812;4.430;2022-09-09T15:54:32;20.50;99.90
24800;DHT22;12897;50.812;4.430;2022-09-09T15:57:03;20.50;99.90
24800;DHT22;12897;50.812;4.430;2022-09-09T15:59:33;20.50;99.90
24800;DHT22;12897;50.812;4.430;2022-09-09T16:02:03;20.40;99.90
24800;DHT22;12897;50.812;4.430;2022-09-09T16:04:32;20.70;99.90
24800;DHT22;12897;50.812;4.430;2022-09-09T16:07:05;20.80;99.90
24800;DHT22;12897;50.812;4.430;2022-09-09T16:09:34;20.60;99.90
24800;DHT22;12897;50.812;4.430;2022-09-09T16:12:03;20.50;99.90
24800;DHT22;12897;50.812;4.430;2022-09-09T16:14:37;20.40;99.90
24800;DHT22;12897;50.812;4.430;2022-09-09T16:17:16;20.30;99.90
24800;DHT22;12897;50.812;4.430;2022-09-09T16:19:43;20.30;99.90
24800;DHT22;12897;50.812;4.430;2022-09-09T16:22:12;20.30;99.90
24800;DHT22;12897;50.812;4.430;2022-09-09T16:24:41;20.40;99.90
24800;DHT22;12897;50.812;4.430;2022-09-09T16:27:11;20.40;99.90
24800;DHT22;12897;50.812;4.430;2022-09-09T16:29:40;20.30;99.90
24800;DHT22;12897;50.812;4.430;2022-09-09T16:32:12;20.10;99.90
24800;DHT22;12897;50.812;4.430;2022-09-09T16:34:39;19.60;99.90
24800;DHT22;12897;50.812;4.430;2022-09-09T16:37:10;19.10;99.90
24800;DHT22;12897;50.812;4.430;2022-09-09T16:39:40;18.80;99.90
24800;DHT22;12897;50.812;4.430;2022-09-09T16:42:31;18.50;99.90
24800;DHT22;12897;50.812;4.430;2022-09-09T16:45:17;18.40;99.90
24800;DHT22;12897;50.812;4.430;2022-09-09T16:47:44;18.50;99.90
24800;DHT22;12897;50.812;4.430;2022-09-09T16:50:14;18.60;99.90
24800;DHT22;12897;50.812;4.430;2022-09-09T16:52:41;18.60;99.90
24800;DHT22;12897;50.812;4.430;2022-09-09T16:55:09;18.60;99.90
24800;DHT22;12897;50.812;4.430;2022-09-09T16:57:39;18.70;99.90
24800;DHT22;12897;50.812;4.430;2022-09-09T17:00:08;18.80;99.90
24800;DHT22;12897;50.812;4.430;2022-09-09T17:02:38;19.00;99.90
24800;DHT22;12897;50.812;4.430;2022-09-09T17:05:08;19.20;99.90
24800;DHT22;12897;50.812;4.430;2022-09-09T17:07:36;19.30;99.90
24800;DHT22;12897;50.812;4.430;2022-09-09T17:10:04;19.30;99.90
24800;DHT22;12897;50.812;4.430;2022-09-09T17:12:32;19.30;99.90
24800;DHT22;12897;50.812;4.430;2022-09-09T17:15:05;19.10;99.90
24800;DHT22;12897;50.812;4.430;2022-09-09T17:17:33;19.00;99.90
24800;DHT22;12897;50.812;4.430;2022-09-09T17:20:01;19.00;99.90
24800;DHT22;12897;50.812;4.430;2022-09-09T17:22:32;18.90;99.90
24800;DHT22;12897;50.812;4.430;2022-09-09T17:25:01;18.80;99.90
24800;DHT22;12897;50.812;4.430;2022-09-09T17:27:30;18.90;99.90
24800;DHT22;12897;50.812;4.430;2022-09-09T17:30:00;18.90;99.90
24800;DHT22;12897;50.812;4.430;2022-09-09T17:32:29;18.90;99.90
24800;DHT22;12897;50.812;4.430;2022-09-09T17:35:02;18.90;99.90
24800;DHT22;12897;50.812;4.430;2022-09-09T17:37:27;18.70;99.90
24800;DHT22;12897;50.812;4.430;2022-09-09T17:39:54;18.70;99.90
24800;DHT22;12897;50.812;4.430;2022-09-09T17:42:22;18.70;99.90